sensor_id;sensor_type;location;lat;lon;timestamp;pressure;altitude;pressure_sealevel;temperature;humidity
10852;BME280;5479;52.046;6.314;2022-07-10T00:01:02;102591.25;;;15.56;100.00
10852;BME280;5479;52.046;6.314;2022-07-10T00:03:30;102596.59;;;15.56;100.00
10852;BME280;5479;52.046;6.314;2022-07-10T00:05:58;102598.50;;;15.54;100.00
10852;BME280;5479;52.046;6.314;2022-07-10T00:08:26;102583.91;;;15.42;100.00
10852;BME280;5479;52.046;6.314;2022-07-10T00:10:53;102589.56;;;15.36;100.00
10852;BME280;5479;52.046;6.314;2022-07-10T00:13:22;102585.50;;;15.29;100.00
10852;BME280;5479;52.046;6.314;2022-07-10T00:15:50;102582.81;;;15.29;100.00
10852;BME280;5479;52.046;6.314;2022-07-10T00:18:18;102577.78;;;15.23;100.00
10852;BME280;5479;52.046;6.314;2022-07-10T00:20:46;102574.34;;;15.21;100.00
10852;BME280;5479;52.046;6.314;2022-07-10T00:23:14;102577.31;;;15.15;100.00
10852;BME280;5479;52.046;6.314;2022-07-10T00:25:42;102576.69;;;15.10;100.00
10852;BME280;5479;52.046;6.314;2022-07-10T00:28:09;102568.19;;;15.02;100.00
10852;BME280;5479;52.046;6.314;2022-07-10T00:30:39;102578.88;;;15.02;100.00
10852;BME280;5479;52.046;6.314;2022-07-10T00:33:06;102577.13;;;15.01;100.00
10852;BME280;5479;52.046;6.314;2022-07-10T00:35:34;102577.13;;;15.01;100.00
10852;BME280;5479;52.046;6.314;2022-07-10T00:38:02;102580.97;;;14.95;100.00
10852;BME280;5479;52.046;6.314;2022-07-10T00:40:30;102578.03;;;14.83;100.00
10852;BME280;5479;52.046;6.314;2022-07-10T00:42:58;102571.69;;;14.85;100.00
10852;BME280;5479;52.046;6.314;2022-07-10T00:45:26;102574.84;;;14.93;100.00
10852;BME280;5479;52.046;6.314;2022-07-10T00:47:55;102561.59;;;14.92;100.00
10852;BME280;5479;52.046;6.314;2022-07-10T00:50:23;102568.47;;;14.79;100.00
10852;BME280;5479;52.046;6.314;2022-07-10T00:52:51;102554.50;;;14.74;100.00
10852;BME280;5479;52.046;6.314;2022-07-10T00:55:19;102556.50;;;14.69;100.00
10852;BME280;5479;52.046;6.314;2022-07-10T00:57:47;102559.25;;;14.67;100.00
10852;BME280;5479;52.046;6.314;2022-07-10T01:00:15;102568.41;;;14.62;100.00
10852;BME280;5479;52.046;6.314;2022-07-10T01:02:45;102550.38;;;14.67;100.00
10852;BME280;5479;52.046;6.314;2022-07-10T01:05:15;102560.25;;;14.65;100.00
10852;BME280;5479;52.046;6.314;2022-07-10T01:07:42;102555.66;;;14.68;100.00
10852;BME280;5479;52.046;6.314;2022-07-10T01:10:10;102563.84;;;14.64;100.00
10852;BME280;5479;52.046;6.314;2022-07-10T01:12:39;102570.28;;;14.60;100.00
10852;BME280;5479;52.046;6.314;2022-07-10T01:15:07;102559.00;;;14.55;100.00
10852;BME280;5479;52.046;6.314;2022-07-10T01:17:35;102553.16;;;14.46;100.00
10852;BME280;5479;52.046;6.314;2022-07-10T01:20:05;102555.31;;;14.38;100.00
10852;BME280;5479;52.046;6.314;2022-07-10T01:22:36;102552.84;;;14.34;100.00
10852;BME280;5479;52.046;6.314;2022-07-10T01:25:04;102554.94;;;14.27;100.00
10852;BME280;5479;52.046;6.314;2022-07-10T01:27:33;102547.34;;;14.18;100.00
10852;BME280;5479;52.046;6.314;2022-07-10T01:30:01;102545.78;;;14.14;100.00
10852;BME280;5479;52.046;6.314;2022-07-10T01:32:36;102545.78;;;14.14;100.00
10852;BME280;5479;52.046;6.314;2022-07-10T01:35:06;102539.66;;;14.12;100.00
10852;BME280;5479;52.046;6.314;2022-07-10T01:37:35;102542.47;;;14.09;100.00
10852;BME280;5479;52.046;6.314;2022-07-10T01:40:04;102541.66;;;14.07;100.00
10852;BME280;5479;52.046;6.314;2022-07-10T01:42:32;102536.63;;;14.01;100.00
10852;BME280;5479;52.046;6.314;2022-07-10T01:45:00;102548.22;;;14.00;100.00
10852;BME280;5479;52.046;6.314;2022-07-10T01:47:27;102540.78;;;13.88;100.00
10852;BME280;5479;52.046;6.314;2022-07-10T01:49:55;102538.41;;;13.82;100.00
10852;BME280;5479;52.046;6.314;2022-07-10T01:52:23;102538.66;;;13.76;100.00
10852;BME280;5479;52.046;6.314;2022-07-10T01:54:52;102541.19;;;13.79;100.00
10852;BME280;5479;52.046;6.314;2022-07-10T01:57:20;102537.88;;;13.74;100.00
10852;BME280;5479;52.046;6.314;2022-07-10T01:59:48;102536.28;;;13.70;100.00
10852;BME280;5479;52.046;6.314;2022-07-10T02:02:16;102535.34;;;13.71;100.00
10852;BME280;5479;52.046;6.314;2022-07-10T02:04:44;102537.22;;;13.69;100.00
10852;BME280;5479;52.046;6.314;2022-07-10T02:07:12;102540.06;;;13.64;100.00
10852;BME280;5479;52.046;6.314;2022-07-10T02:09:41;102533.09;;;13.62;100.00
10852;BME280;5479;52.046;6.314;2022-07-10T02:12:12;102528.09;;;13.54;100.00
10852;BME280;5479;52.046;6.314;2022-07-10T02:14:41;102523.56;;;13.56;100.00
10852;BME280;5479;52.046;6.314;2022-07-10T02:17:09;102523.78;;;13.52;100.00
10852;BME280;5479;52.046;6.314;2022-07-10T02:19:38;102519.19;;;13.55;100.00
10852;BME280;5479;52.046;6.314;2022-07-10T02:22:05;102518.47;;;13.52;100.00
10852;BME280;5479;52.046;6.314;2022-07-10T02:24:33;102511.56;;;13.48;100.00
10852;BME280;5479;52.046;6.314;2022-07-10T02:27:01;102510.94;;;13.41;100.00
10852;BME280;5479;52.046;6.314;2022-07-10T02:29:31;102507.72;;;13.35;100.00
10852;BME280;5479;52.046;6.314;2022-07-10T02:31:58;102497.72;;;13.40;100.00
10852;BME280;5479;52.046;6.314;2022-07-10T02:34:26;102505.72;;;13.40;100.00
10852;BME280;5479;52.046;6.314;2022-07-10T02:36:54;102506.63;;;13.39;100.00
10852;BME280;5479;52.046;6.314;2022-07-10T02:39:22;102503.06;;;13.40;100.00
10852;BME280;5479;52.046;6.314;2022-07-10T02:41:50;102498.00;;;13.34;100.00
10852;BME280;5479;52.046;6.314;2022-07-10T02:44:17;102502.44;;;13.33;100.00
10852;BME280;5479;52.046;6.314;2022-07-10T02:46:46;102500.00;;;13.28;100.00
10852;BME280;5479;52.046;6.314;2022-07-10T02:49:15;102499.13;;;13.28;100.00
10852;BME280;5479;52.046;6.314;2022-07-10T02:51:43;102493.22;;;13.21;100.00
10852;BME280;5479;52.046;6.314;2022-07-10T02:54:11;102492.47;;;13.18;100.00
10852;BME280;5479;52.046;6.314;2022-07-10T02:56:39;102495.81;;;13.23;100.00
10852;BME280;5479;52.046;6.314;2022-07-10T02:59:07;102498.53;;;13.21;100.00
10852;BME280;5479;52.046;6.314;2022-07-10T03:01:35;102501.59;;;13.12;100.00
10852;BME280;5479;52.046;6.314;2022-07-10T03:04:05;102505.81;;;13.16;100.00
10852;BME280;5479;52.046;6.314;2022-07-10T03:06:32;102505.00;;;13.16;100.00
10852;BME280;5479;52.046;6.314;2022-07-10T03:09:00;102497.19;;;13.11;100.00
10852;BME280;5479;52.046;6.314;2022-07-10T03:11:28;102497.13;;;13.13;100.00
10852;BME280;5479;52.046;6.314;2022-07-10T03:13:56;102502.63;;;13.08;100.00
10852;BME280;5479;52.046;6.314;2022-07-10T03:16:24;102506.25;;;13.07;100.00
10852;BME280;5479;52.046;6.314;2022-07-10T03:18:52;102504.38;;;13.09;100.00
10852;BME280;5479;52.046;6.314;2022-07-10T03:21:21;102506.34;;;13.04;100.00
10852;BME280;5479;52.046;6.314;2022-07-10T03:23:49;102503.59;;;13.06;100.00
10852;BME280;5479;52.046;6.314;2022-07-10T03:26:16;102511.56;;;13.07;100.00
10852;BME280;5479;52.046;6.314;2022-07-10T03:28:44;102508.78;;;13.10;100.00
10852;BME280;5479;52.046;6.314;2022-07-10T03:31:12;102507.56;;;13.17;100.00
10852;BME280;5479;52.046;6.314;2022-07-10T03:33:40;102510.91;;;13.22;100.00
10852;BME280;5479;52.046;6.314;2022-07-10T03:36:08;102505.44;;;13.25;100.00
10852;BME280;5479;52.046;6.314;2022-07-10T03:38:37;102499.78;;;13.33;100.00
10852;BME280;5479;52.046;6.314;2022-07-10T03:41:05;102506.91;;;13.32;100.00
10852;BME280;5479;52.046;6.314;2022-07-10T03:43:33;102505.31;;;13.28;100.00
10852;BME280;5479;52.046;6.314;2022-07-10T03:46:02;102499.78;;;13.33;100.00
10852;BME280;5479;52.046;6.314;2022-07-10T03:48:30;102495.13;;;13.38;100.00
10852;BME280;5479;52.046;6.314;2022-07-10T03:50:59;102499.84;;;13.52;100.00
10852;BME280;5479;52.046;6.314;2022-07-10T03:53:27;102504.69;;;13.62;100.00
10852;BME280;5479;52.046;6.314;2022-07-10T03:55:56;102503.31;;;13.72;100.00
10852;BME280;5479;52.046;6.314;2022-07-10T03:58:24;102503.00;;;13.80;100.00
10852;BME280;5479;52.046;6.314;2022-07-10T04:00:50;102498.84;;;13.93;100.00
10852;BME280;5479;52.046;6.314;2022-07-10T04:03:18;102503.94;;;13.98;100.00
10852;BME280;5479;52.046;6.314;2022-07-10T04:05:46;102499.03;;;14.07;100.00
10852;BME280;5479;52.046;6.314;2022-07-10T04:08:14;102503.00;;;14.17;100.00
10852;BME280;5479;52.046;6.314;2022-07-10T04:10:42;102492.56;;;14.31;100.00
10852;BME280;5479;52.046;6.314;2022-07-10T04:13:11;102489.75;;;14.34;100.00
10852;BME280;5479;52.046;6.314;2022-07-10T04:15:39;102494.81;;;14.40;100.00
10852;BME280;5479;52.046;6.314;2022-07-10T04:18:06;102502.16;;;14.35;100.00
10852;BME280;5479;52.046;6.314;2022-07-10T04:20:34;102492.91;;;14.42;100.00
10852;BME280;5479;52.046;6.314;2022-07-10T04:23:02;102487.38;;;14.47;100.00
10852;BME280;5479;52.046;6.314;2022-07-10T04:25:30;102496.22;;;14.47;100.00
10852;BME280;5479;52.046;6.314;2022-07-10T04:27:59;102497.97;;;14.48;100.00
10852;BME280;5479;52.046;6.314;2022-07-10T04:30:28;102484.41;;;14.53;100.00
10852;BME280;5479;52.046;6.314;2022-07-10T04:32:56;102489.91;;;14.67;100.00
10852;BME280;5479;52.046;6.314;2022-07-10T04:35:24;102492.69;;;14.83;100.00
10852;BME280;5479;52.046;6.314;2022-07-10T04:37:51;102485.31;;;14.88;100.00
10852;BME280;5479;52.046;6.314;2022-07-10T04:40:19;102493.16;;;14.91;100.00
10852;BME280;5479;52.046;6.314;2022-07-10T04:42:47;102485.88;;;14.94;100.00
10852;BME280;5479;52.046;6.314;2022-07-10T04:45:15;102489.88;;;14.86;100.00
10852;BME280;5479;52.046;6.314;2022-07-10T04:47:44;102493.25;;;14.89;100.00
10852;BME280;5479;52.046;6.314;2022-07-10T04:50:12;102494.13;;;14.90;100.00
10852;BME280;5479;52.046;6.314;2022-07-10T04:52:40;102489.88;;;15.03;100.00
10852;BME280;5479;52.046;6.314;2022-07-10T04:55:08;102493.31;;;15.05;100.00
10852;BME280;5479;52.046;6.314;2022-07-10T04:57:36;102483.38;;;15.08;100.00
10852;BME280;5479;52.046;6.314;2022-07-10T05:00:06;102486.50;;;15.17;100.00
10852;BME280;5479;52.046;6.314;2022-07-10T05:02:34;102484.22;;;15.09;100.00
10852;BME280;5479;52.046;6.314;2022-07-10T05:05:04;102483.91;;;15.15;100.00
10852;BME280;5479;52.046;6.314;2022-07-10T05:07:32;102488.06;;;15.21;100.00
10852;BME280;5479;52.046;6.314;2022-07-10T05:09:59;102491.75;;;15.35;100.00
10852;BME280;5479;52.046;6.314;2022-07-10T05:12:27;102489.38;;;15.46;100.00
10852;BME280;5479;52.046;6.314;2022-07-10T05:14:55;102491.50;;;15.57;100.00
10852;BME280;5479;52.046;6.314;2022-07-10T05:17:23;102497.81;;;15.72;100.00
10852;BME280;5479;52.046;6.314;2022-07-10T05:19:51;102499.91;;;15.82;100.00
10852;BME280;5479;52.046;6.314;2022-07-10T05:22:21;102501.84;;;15.96;100.00
10852;BME280;5479;52.046;6.314;2022-07-10T05:24:49;102498.41;;;15.94;100.00
10852;BME280;5479;52.046;6.314;2022-07-10T05:27:17;102496.06;;;16.03;100.00
10852;BME280;5479;52.046;6.314;2022-07-10T05:29:46;102501.13;;;15.92;100.00
10852;BME280;5479;52.046;6.314;2022-07-10T05:32:14;102492.78;;;15.83;100.00
10852;BME280;5479;52.046;6.314;2022-07-10T05:34:42;102496.38;;;15.82;100.00
10852;BME280;5479;52.046;6.314;2022-07-10T05:37:10;102500.00;;;15.81;100.00
10852;BME280;5479;52.046;6.314;2022-07-10T05:39:39;102506.75;;;15.88;100.00
10852;BME280;5479;52.046;6.314;2022-07-10T05:42:07;102506.41;;;15.94;100.00
10852;BME280;5479;52.046;6.314;2022-07-10T05:44:35;102507.34;;;15.93;100.00
10852;BME280;5479;52.046;6.314;2022-07-10T05:47:03;102507.03;;;15.99;100.00
10852;BME280;5479;52.046;6.314;2022-07-10T05:49:31;102495.56;;;15.97;100.00
10852;BME280;5479;52.046;6.314;2022-07-10T05:51:59;102498.31;;;16.11;100.00
10852;BME280;5479;52.046;6.314;2022-07-10T05:54:27;102500.66;;;16.17;100.00
10852;BME280;5479;52.046;6.314;2022-07-10T05:56:57;102497.31;;;16.29;100.00
10852;BME280;5479;52.046;6.314;2022-07-10T05:59:25;102501.69;;;16.30;100.00
10852;BME280;5479;52.046;6.314;2022-07-10T06:01:53;102498.31;;;16.26;100.00
10852;BME280;5479;52.046;6.314;2022-07-10T06:04:21;102502.13;;;16.22;100.00
10852;BME280;5479;52.046;6.314;2022-07-10T06:06:48;102501.25;;;16.22;100.00
10852;BME280;5479;52.046;6.314;2022-07-10T06:09:16;102506.34;;;16.42;100.00
10852;BME280;5479;52.046;6.314;2022-07-10T06:11:44;102503.44;;;16.62;100.00
10852;BME280;5479;52.046;6.314;2022-07-10T06:14:14;102500.66;;;16.79;100.00
10852;BME280;5479;52.046;6.314;2022-07-10T06:16:42;102499.78;;;17.09;100.00
10852;BME280;5479;52.046;6.314;2022-07-10T06:19:09;102499.06;;;17.35;100.00
10852;BME280;5479;52.046;6.314;2022-07-10T06:21:37;102497.44;;;17.32;100.00
10852;BME280;5479;52.046;6.314;2022-07-10T06:24:05;102507.25;;;17.18;100.00
10852;BME280;5479;52.046;6.314;2022-07-10T06:26:33;102501.94;;;17.32;100.00
10852;BME280;5479;52.046;6.314;2022-07-10T06:29:02;102499.47;;;17.43;100.00
10852;BME280;5479;52.046;6.314;2022-07-10T06:31:31;102501.22;;;17.58;100.00
10852;BME280;5479;52.046;6.314;2022-07-10T06:33:59;102502.75;;;17.76;100.00
10852;BME280;5479;52.046;6.314;2022-07-10T06:36:26;102501.44;;;17.83;100.00
10852;BME280;5479;52.046;6.314;2022-07-10T06:38:54;102503.16;;;17.70;100.00
10852;BME280;5479;52.046;6.314;2022-07-10T06:41:22;102502.75;;;17.76;100.00
10852;BME280;5479;52.046;6.314;2022-07-10T06:43:50;102502.00;;;17.88;100.00
10852;BME280;5479;52.046;6.314;2022-07-10T06:46:18;102508.97;;;17.77;100.00
10852;BME280;5479;52.046;6.314;2022-07-10T06:48:47;102495.13;;;17.56;100.00
10852;BME280;5479;52.046;6.314;2022-07-10T06:51:14;102504.28;;;17.52;100.00
10852;BME280;5479;52.046;6.314;2022-07-10T06:53:42;102504.47;;;17.49;100.00
10852;BME280;5479;52.046;6.314;2022-07-10T06:56:10;102495.56;;;17.48;100.00
10852;BME280;5479;52.046;6.314;2022-07-10T06:58:38;102500.72;;;17.52;100.00
10852;BME280;5479;52.046;6.314;2022-07-10T07:01:09;102499.94;;;17.49;100.00
10852;BME280;5479;52.046;6.314;2022-07-10T07:03:38;102499.75;;;17.38;100.00
10852;BME280;5479;52.046;6.314;2022-07-10T07:06:07;102500.19;;;17.17;100.00
10852;BME280;5479;52.046;6.314;2022-07-10T07:08:36;102493.88;;;17.18;100.00
10852;BME280;5479;52.046;6.314;2022-07-10T07:11:04;102500.25;;;17.01;100.00
10852;BME280;5479;52.046;6.314;2022-07-10T07:13:32;102490.66;;;16.97;100.00
10852;BME280;5479;52.046;6.314;2022-07-10T07:16:00;102486.53;;;16.92;100.00
10852;BME280;5479;52.046;6.314;2022-07-10T07:18:32;102504.16;;;16.96;100.00
10852;BME280;5479;52.046;6.314;2022-07-10T07:21:01;102490.94;;;16.93;100.00
10852;BME280;5479;52.046;6.314;2022-07-10T07:23:48;102499.63;;;16.96;100.00
10852;BME280;5479;52.046;6.314;2022-07-10T07:26:16;102508.63;;;16.95;100.00
10852;BME280;5479;52.046;6.314;2022-07-10T07:28:44;102506.25;;;16.75;100.00
10852;BME280;5479;52.046;6.314;2022-07-10T07:31:12;102510.75;;;16.43;100.00
10852;BME280;5479;52.046;6.314;2022-07-10T07:33:40;102508.16;;;16.26;100.00
10852;BME280;5479;52.046;6.314;2022-07-10T07:36:07;102512.66;;;16.10;100.00
10852;BME280;5479;52.046;6.314;2022-07-10T07:38:35;102516.75;;;16.00;100.00
10852;BME280;5479;52.046;6.314;2022-07-10T07:41:05;102517.25;;;15.91;100.00
10852;BME280;5479;52.046;6.314;2022-07-10T07:43:32;102521.38;;;15.81;100.00
10852;BME280;5479;52.046;6.314;2022-07-10T07:46:00;102530.16;;;15.83;100.00
10852;BME280;5479;52.046;6.314;2022-07-10T07:48:28;102522.28;;;15.97;100.00
10852;BME280;5479;52.046;6.314;2022-07-10T07:50:56;102520.72;;;16.24;100.00
10852;BME280;5479;52.046;6.314;2022-07-10T07:53:24;102516.69;;;16.48;100.00
10852;BME280;5479;52.046;6.314;2022-07-10T07:55:52;102517.13;;;16.56;100.00
10852;BME280;5479;52.046;6.314;2022-07-10T07:58:22;102524.22;;;16.57;100.00
10852;BME280;5479;52.046;6.314;2022-07-10T08:00:50;102517.97;;;16.72;100.00
10852;BME280;5479;52.046;6.314;2022-07-10T08:03:19;102516.09;;;17.04;100.00
10852;BME280;5479;52.046;6.314;2022-07-10T08:05:46;102523.75;;;17.40;100.00
10852;BME280;5479;52.046;6.314;2022-07-10T08:08:15;102518.75;;;17.64;100.00
10852;BME280;5479;52.046;6.314;2022-07-10T08:10:42;102513.19;;;17.67;100.00
10852;BME280;5479;52.046;6.314;2022-07-10T08:13:10;102508.31;;;18.01;100.00
10852;BME280;5479;52.046;6.314;2022-07-10T08:15:40;102503.69;;;18.18;100.00
10852;BME280;5479;52.046;6.314;2022-07-10T08:18:07;102503.13;;;18.27;100.00
10852;BME280;5479;52.046;6.314;2022-07-10T08:20:35;102501.63;;;18.76;100.00
10852;BME280;5479;52.046;6.314;2022-07-10T08:23:03;102493.44;;;19.04;100.00
10852;BME280;5479;52.046;6.314;2022-07-10T08:25:31;102493.91;;;18.72;100.00
10852;BME280;5479;52.046;6.314;2022-07-10T08:28:00;102494.59;;;18.88;100.00
10852;BME280;5479;52.046;6.314;2022-07-10T08:30:28;102489.81;;;18.79;100.00
10852;BME280;5479;52.046;6.314;2022-07-10T08:32:58;102496.19;;;18.37;100.00
10852;BME280;5479;52.046;6.314;2022-07-10T08:35:26;102500.47;;;17.98;100.00
10852;BME280;5479;52.046;6.314;2022-07-10T08:37:53;102512.28;;;17.38;100.00
10852;BME280;5479;52.046;6.314;2022-07-10T08:40:22;102514.84;;;16.96;100.00
10852;BME280;5479;52.046;6.314;2022-07-10T08:42:50;102509.28;;;16.69;100.00
10852;BME280;5479;52.046;6.314;2022-07-10T08:45:18;102513.00;;;16.66;100.00
10852;BME280;5479;52.046;6.314;2022-07-10T08:47:46;102508.88;;;16.45;100.00
10852;BME280;5479;52.046;6.314;2022-07-10T08:50:17;102506.63;;;16.53;100.00
10852;BME280;5479;52.046;6.314;2022-07-10T08:52:52;102509.13;;;16.56;100.00
10852;BME280;5479;52.046;6.314;2022-07-10T08:55:27;102506.19;;;16.45;100.00
10852;BME280;5479;52.046;6.314;2022-07-10T08:57:55;102518.16;;;16.38;100.00
10852;BME280;5479;52.046;6.314;2022-07-10T09:00:23;102519.25;;;16.18;100.00
10852;BME280;5479;52.046;6.314;2022-07-10T09:02:53;102520.22;;;16.17;100.00
10852;BME280;5479;52.046;6.314;2022-07-10T09:05:22;102521.75;;;16.06;100.00
10852;BME280;5479;52.046;6.314;2022-07-10T09:07:50;102511.59;;;15.97;100.00
10852;BME280;5479;52.046;6.314;2022-07-10T09:10:21;102515.03;;;15.99;100.00
10852;BME280;5479;52.046;6.314;2022-07-10T09:12:51;102514.63;;;16.22;100.00
10852;BME280;5479;52.046;6.314;2022-07-10T09:15:21;102494.69;;;16.43;100.00
10852;BME280;5479;52.046;6.314;2022-07-10T09:17:51;102499.69;;;16.49;100.00
10852;BME280;5479;52.046;6.314;2022-07-10T09:20:36;102495.75;;;16.72;100.00
10852;BME280;5479;52.046;6.314;2022-07-10T09:23:15;102507.56;;;16.68;100.00
10852;BME280;5479;52.046;6.314;2022-07-10T09:25:45;102506.97;;;16.32;100.00
10852;BME280;5479;52.046;6.314;2022-07-10T09:28:17;102505.91;;;16.18;100.00
10852;BME280;5479;52.046;6.314;2022-07-10T09:30:45;102504.19;;;16.17;100.00
10852;BME280;5479;52.046;6.314;2022-07-10T09:33:22;102496.78;;;16.38;100.00
10852;BME280;5479;52.046;6.314;2022-07-10T09:36:01;102494.53;;;16.46;100.00
10852;BME280;5479;52.046;6.314;2022-07-10T09:38:54;102486.09;;;16.54;100.00
10852;BME280;5479;52.046;6.314;2022-07-10T09:41:26;102498.91;;;16.78;100.00
10852;BME280;5479;52.046;6.314;2022-07-10T09:43:55;102491.66;;;17.10;100.00
10852;BME280;5479;52.046;6.314;2022-07-10T09:46:25;102490.53;;;17.14;100.00
10852;BME280;5479;52.046;6.314;2022-07-10T09:49:05;102491.13;;;17.19;100.00
10852;BME280;5479;52.046;6.314;2022-07-10T09:51:37;102486.38;;;17.38;100.00
10852;BME280;5479;52.046;6.314;2022-07-10T09:54:06;102487.16;;;17.83;100.00
10852;BME280;5479;52.046;6.314;2022-07-10T09:56:40;102481.44;;;18.03;100.00
10852;BME280;5479;52.046;6.314;2022-07-10T09:59:10;102478.28;;;18.37;100.00
10852;BME280;5479;52.046;6.314;2022-07-10T10:01:44;102471.16;;;18.77;100.00
10852;BME280;5479;52.046;6.314;2022-07-10T10:04:13;102476.56;;;19.02;100.00
10852;BME280;5479;52.046;6.314;2022-07-10T10:06:45;102477.22;;;19.06;100.00
10852;BME280;5479;52.046;6.314;2022-07-10T10:09:21;102481.44;;;18.71;100.00
10852;BME280;5479;52.046;6.314;2022-07-10T10:11:55;102481.53;;;18.69;100.00
10852;BME280;5479;52.046;6.314;2022-07-10T10:14:25;102487.75;;;18.43;100.00
10852;BME280;5479;52.046;6.314;2022-07-10T10:16:55;102482.06;;;18.61;100.00
10852;BME280;5479;52.046;6.314;2022-07-10T10:19:24;102490.72;;;18.38;100.00
10852;BME280;5479;52.046;6.314;2022-07-10T10:22:12;102485.63;;;18.07;100.00
10852;BME280;5479;52.046;6.314;2022-07-10T10:24:40;102481.50;;;18.16;100.00
10852;BME280;5479;52.046;6.314;2022-07-10T10:27:08;102478.59;;;18.19;100.00
10852;BME280;5479;52.046;6.314;2022-07-10T10:29:37;102471.53;;;18.58;100.00
10852;BME280;5479;52.046;6.314;2022-07-10T10:32:07;102473.00;;;18.89;100.00
10852;BME280;5479;52.046;6.314;2022-07-10T10:34:40;102476.63;;;19.27;100.00
10852;BME280;5479;52.046;6.314;2022-07-10T10:37:32;102465.13;;;19.76;100.00
10852;BME280;5479;52.046;6.314;2022-07-10T10:40:00;102469.91;;;19.96;100.00
10852;BME280;5479;52.046;6.314;2022-07-10T10:42:32;102463.44;;;20.11;100.00
10852;BME280;5479;52.046;6.314;2022-07-10T10:45:23;102456.38;;;20.58;100.00
10852;BME280;5479;52.046;6.314;2022-07-10T10:48:01;102464.28;;;20.72;100.00
10852;BME280;5479;52.046;6.314;2022-07-10T10:50:39;102470.94;;;20.31;100.00
10852;BME280;5479;52.046;6.314;2022-07-10T10:53:16;102470.59;;;19.87;100.00
10852;BME280;5479;52.046;6.314;2022-07-10T10:58:46;102472.03;;;18.51;100.00
10852;BME280;5479;52.046;6.314;2022-07-10T11:01:26;102463.44;;;18.32;100.00
10852;BME280;5479;52.046;6.314;2022-07-10T11:04:13;102472.81;;;18.25;100.00
10852;BME280;5479;52.046;6.314;2022-07-10T11:06:43;102477.59;;;18.34;100.00
10852;BME280;5479;52.046;6.314;2022-07-10T11:09:27;102475.28;;;18.42;100.00
10852;BME280;5479;52.046;6.314;2022-07-10T11:12:03;102467.09;;;18.57;100.00
10852;BME280;5479;52.046;6.314;2022-07-10T11:14:33;102468.41;;;18.91;100.00
10852;BME280;5479;52.046;6.314;2022-07-10T11:17:03;102464.91;;;19.66;100.00
10852;BME280;5479;52.046;6.314;2022-07-10T11:19:32;102452.56;;;20.49;100.00
10852;BME280;5479;52.046;6.314;2022-07-10T11:25:20;102447.59;;;22.68;100.00
10852;BME280;5479;52.046;6.314;2022-07-10T11:28:05;102443.97;;;22.78;95.77
10852;BME280;5479;52.046;6.314;2022-07-10T11:30:45;102451.63;;;22.94;93.75
10852;BME280;5479;52.046;6.314;2022-07-10T11:33:14;102441.88;;;22.39;91.67
10852;BME280;5479;52.046;6.314;2022-07-10T11:35:44;102429.59;;;22.03;93.76
10852;BME280;5479;52.046;6.314;2022-07-10T11:38:19;102428.38;;;21.96;92.80
10852;BME280;5479;52.046;6.314;2022-07-10T11:40:48;102425.78;;;22.17;91.50
10852;BME280;5479;52.046;6.314;2022-07-10T11:43:17;102431.00;;;22.93;86.76
10852;BME280;5479;52.046;6.314;2022-07-10T11:45:48;102425.50;;;23.25;83.12
10852;BME280;5479;52.046;6.314;2022-07-10T11:48:17;102424.66;;;23.75;76.03
10852;BME280;5479;52.046;6.314;2022-07-10T11:50:45;102418.66;;;24.12;75.22
10852;BME280;5479;52.046;6.314;2022-07-10T11:53:13;102419.09;;;24.17;75.17
10852;BME280;5479;52.046;6.314;2022-07-10T11:55:41;102421.88;;;24.06;74.23
10852;BME280;5479;52.046;6.314;2022-07-10T11:58:16;102417.34;;;23.66;76.23
10852;BME280;5479;52.046;6.314;2022-07-10T12:00:57;102422.31;;;23.61;77.33
10852;BME280;5479;52.046;6.314;2022-07-10T12:03:26;102421.81;;;23.26;80.00
10852;BME280;5479;52.046;6.314;2022-07-10T12:05:54;102427.72;;;22.90;80.23
10852;BME280;5479;52.046;6.314;2022-07-10T12:08:22;102430.47;;;21.93;88.27
10852;BME280;5479;52.046;6.314;2022-07-10T12:10:51;102429.50;;;21.60;90.04
10852;BME280;5479;52.046;6.314;2022-07-10T12:13:20;102433.63;;;21.31;95.31
10852;BME280;5479;52.046;6.314;2022-07-10T12:15:48;102435.56;;;21.07;100.00
10852;BME280;5479;52.046;6.314;2022-07-10T12:18:17;102440.41;;;21.02;98.46
10852;BME280;5479;52.046;6.314;2022-07-10T12:20:46;102437.69;;;20.91;99.47
10852;BME280;5479;52.046;6.314;2022-07-10T12:23:15;102437.59;;;21.03;99.62
10852;BME280;5479;52.046;6.314;2022-07-10T12:25:44;102436.72;;;21.03;97.89
10852;BME280;5479;52.046;6.314;2022-07-10T12:28:12;102440.47;;;20.89;97.26
10852;BME280;5479;52.046;6.314;2022-07-10T12:30:43;102450.44;;;20.41;100.00
10852;BME280;5479;52.046;6.314;2022-07-10T12:33:13;102459.16;;;20.09;100.00
10852;BME280;5479;52.046;6.314;2022-07-10T12:35:49;102452.56;;;20.13;100.00
10852;BME280;5479;52.046;6.314;2022-07-10T12:38:18;102441.09;;;20.58;100.00
10852;BME280;5479;52.046;6.314;2022-07-10T12:40:46;102441.84;;;20.84;100.00
10852;BME280;5479;52.046;6.314;2022-07-10T12:43:24;102441.56;;;20.87;96.74
10852;BME280;5479;52.046;6.314;2022-07-10T12:46:10;102429.63;;;21.02;96.19
10852;BME280;5479;52.046;6.314;2022-07-10T12:48:38;102436.72;;;21.27;95.75
10852;BME280;5479;52.046;6.314;2022-07-10T12:51:24;102430.28;;;20.82;95.81
10852;BME280;5479;52.046;6.314;2022-07-10T12:53:52;102439.56;;;20.67;97.85
10852;BME280;5479;52.046;6.314;2022-07-10T12:56:32;102440.81;;;20.26;100.00
10852;BME280;5479;52.046;6.314;2022-07-10T12:59:02;102441.22;;;20.20;100.00
10852;BME280;5479;52.046;6.314;2022-07-10T13:01:41;102435.44;;;19.90;100.00
10852;BME280;5479;52.046;6.314;2022-07-10T13:04:09;102437.44;;;19.99;100.00
10852;BME280;5479;52.046;6.314;2022-07-10T13:06:38;102429.13;;;20.38;100.00
10852;BME280;5479;52.046;6.314;2022-07-10T13:09:21;102433.28;;;21.01;100.00